createdAt,value
2019-05-12T00:04:20.699Z,15.10
2019-05-12T00:09:22.137Z,33.83
2019-05-12T00:14:23.613Z,23.47
2019-05-12T00:19:25.161Z,28.83
2019-05-12T00:24:27.988Z,24.37
2019-05-12T00:29:29.794Z,20.13
2019-05-12T00:34:32.158Z,18.40
2019-05-12T00:39:33.811Z,33.93
2019-05-12T00:44:35.376Z,22.80
2019-05-12T00:49:37.910Z,21.50
2019-05-12T00:54:39.641Z,30.33
2019-05-12T00:59:41.086Z,31.37
2019-05-12T01:04:42.715Z,25.10
2019-05-12T01:09:44.259Z,20.50
2019-05-12T01:14:47.784Z,27.40
2019-05-12T01:19:49.402Z,19.10
2019-05-12T01:24:50.952Z,22.67
2019-05-12T01:29:53.363Z,25.97
2019-05-12T01:34:57.777Z,20.20
2019-05-12T01:40:00.183Z,28.40
2019-05-12T01:45:02.801Z,23.67
2019-05-12T01:50:05.246Z,31.57
2019-05-12T01:55:08.160Z,15.73
2019-05-12T02:00:12.640Z,22.17
2019-05-12T02:05:15.213Z,17.27
2019-05-12T02:10:18.096Z,19.60
2019-05-12T02:15:19.937Z,26.63
2019-05-12T02:20:21.771Z,24.23
2019-05-12T02:25:23.353Z,35.27
2019-05-12T02:30:24.916Z,18.60
2019-05-12T02:35:26.822Z,19.03
2019-05-12T02:40:28.347Z,22.83
2019-05-12T02:45:29.959Z,32.90
2019-05-12T02:50:35.321Z,39.20
2019-05-12T02:55:37.901Z,35.90
2019-05-12T03:00:39.476Z,42.10
2019-05-12T03:05:44.392Z,30.77
2019-05-12T03:10:47.550Z,24.27
2019-05-12T03:15:48.971Z,40.53
2019-05-12T03:20:54.818Z,36.27
2019-05-12T03:25:56.472Z,38.73
2019-05-12T03:30:58.588Z,29.77
2019-05-12T03:36:01.605Z,23.37
2019-05-12T03:41:05.326Z,41.97
2019-05-12T03:46:07.013Z,31.97
2019-05-12T03:51:08.586Z,47.37
2019-05-12T03:56:10.194Z,38.60
2019-05-12T04:01:14.765Z,34.53
2019-05-12T04:06:15.693Z,39.17
2019-05-12T04:11:17.379Z,50.53
2019-05-12T04:16:19.264Z,39.67
2019-05-12T04:21:20.808Z,35.27
2019-05-12T04:26:25.089Z,39.77
2019-05-12T04:31:25.923Z,36.87
2019-05-12T04:36:27.417Z,37.43
2019-05-12T04:41:29.396Z,40.10
2019-05-12T04:46:34.372Z,25.63
2019-05-12T04:51:35.212Z,30.30
2019-05-12T04:56:36.910Z,56.80
2019-05-12T05:01:38.578Z,28.13
2019-05-12T05:06:40.146Z,42.03
2019-05-12T05:11:44.796Z,33.57
2019-05-12T05:16:46.165Z,38.40
2019-05-12T05:21:48.564Z,37.17
2019-05-12T05:26:51.229Z,23.67
2019-05-12T05:31:53.380Z,32.00
2019-05-12T05:37:01.468Z,25.63
2019-05-12T05:42:04.658Z,38.50
2019-05-12T05:47:08.965Z,31.00
2019-05-12T05:52:13.829Z,25.63
2019-05-12T05:57:24.961Z,26.50
2019-05-12T06:02:32.001Z,30.13
2019-05-12T06:07:34.916Z,33.90
2019-05-12T06:12:33.428Z,35.00
2019-05-12T06:17:35.089Z,25.03
2019-05-12T06:22:40.243Z,27.37
2019-05-12T06:27:45.304Z,23.90
2019-05-12T06:32:55.619Z,35.30
2019-05-12T06:38:01.790Z,40.67
2019-05-12T06:43:04.398Z,32.10
2019-05-12T06:48:09.408Z,20.93
2019-05-12T06:53:10.878Z,26.60
2019-05-12T06:58:14.049Z,19.40
2019-05-12T07:03:19.349Z,22.27
2019-05-12T07:08:26.496Z,23.33
2019-05-12T07:13:29.214Z,28.40
2019-05-12T07:18:32.433Z,24.90
2019-05-12T07:23:30.359Z,21.63
2019-05-12T07:28:36.274Z,17.60
2019-05-12T07:33:41.316Z,28.57
2019-05-12T07:38:40.732Z,22.13
2019-05-12T07:43:44.392Z,35.63
2019-05-12T07:48:50.715Z,39.57
2019-05-12T07:53:57.538Z,27.60
2019-05-12T07:58:57.328Z,24.60
2019-05-12T08:04:01.485Z,27.43
2019-05-12T08:09:06.091Z,31.43
2019-05-12T08:14:13.847Z,31.63
2019-05-12T08:19:14.968Z,30.43
2019-05-12T08:24:14.713Z,30.03
2019-05-12T08:29:21.338Z,30.60
2019-05-12T08:34:19.654Z,31.47
2019-05-12T08:39:25.350Z,31.47
2019-05-12T08:44:33.712Z,31.80
2019-05-12T08:49:34.147Z,32.47
2019-05-12T08:54:39.680Z,32.70
2019-05-12T08:59:44.158Z,31.60
2019-05-12T09:05:07.968Z,32.43
2019-05-12T09:10:09.974Z,34.00
2019-05-12T09:15:13.574Z,34.53
2019-05-12T09:20:15.306Z,35.30
2019-05-12T09:25:16.815Z,35.97
2019-05-12T09:30:23.901Z,36.67
2019-05-12T09:35:28.722Z,35.70
2019-05-12T09:40:37.167Z,37.37
2019-05-12T09:45:51.377Z,35.83
2019-05-12T09:50:46.415Z,36.87
2019-05-12T09:55:47.641Z,38.57
2019-05-12T10:00:49.619Z,39.17
2019-05-12T10:05:53.368Z,36.27
2019-05-12T10:10:55.422Z,37.07
2019-05-12T10:15:58.837Z,38.27
2019-05-12T10:21:00.484Z,38.87
2019-05-12T10:26:09.956Z,45.73
2019-05-12T10:31:05.599Z,44.37
2019-05-12T10:36:08.531Z,51.57
2019-05-12T10:41:12.991Z,49.07
2019-05-12T10:46:24.449Z,39.73
2019-05-12T10:51:24.022Z,40.40
2019-05-12T10:56:26.422Z,41.10
2019-05-12T11:01:29.362Z,39.47
2019-05-12T11:06:31.024Z,38.70
2019-05-12T11:11:41.720Z,45.10
2019-05-12T11:16:36.230Z,44.70
2019-05-12T11:21:38.076Z,41.07
2019-05-12T11:26:40.071Z,41.43
2019-05-12T11:31:44.089Z,41.23
2019-05-12T11:36:45.644Z,51.80
2019-05-12T11:41:47.281Z,42.57
2019-05-12T11:46:49.368Z,47.47
2019-05-12T11:51:51.043Z,42.10
2019-05-12T11:56:53.577Z,44.30
2019-05-12T12:01:56.150Z,39.90
2019-05-12T12:07:05.781Z,45.73
2019-05-12T12:12:08.288Z,42.07
2019-05-12T12:17:13.745Z,42.27
2019-05-12T12:22:20.378Z,43.67
2019-05-12T12:27:20.457Z,42.00
2019-05-12T12:32:23.272Z,48.77
2019-05-12T12:37:25.716Z,51.80
2019-05-12T12:42:30.384Z,41.90
2019-05-12T12:47:35.936Z,49.63
2019-05-12T12:52:38.791Z,54.03
2019-05-12T12:57:40.321Z,43.93
2019-05-12T13:02:47.431Z,45.87
2019-05-12T13:07:44.859Z,41.00
2019-05-12T13:12:50.472Z,42.00
2019-05-12T13:17:50.783Z,44.50
2019-05-12T13:22:53.634Z,42.63
2019-05-12T13:27:55.280Z,43.27
2019-05-12T13:32:57.130Z,41.93
2019-05-12T13:38:00.594Z,41.47
2019-05-12T13:43:09.249Z,41.53
2019-05-12T13:48:15.923Z,43.27
2019-05-12T13:53:14.090Z,47.10
2019-05-12T13:58:15.853Z,42.47
2019-05-12T14:03:17.402Z,42.33
2019-05-12T14:08:18.946Z,47.63
2019-05-12T14:13:20.663Z,44.17
2019-05-12T14:18:23.117Z,43.07
2019-05-12T14:23:24.689Z,40.77
2019-05-12T14:28:26.263Z,42.30
2019-05-12T14:33:29.915Z,41.27
2019-05-12T14:38:33.657Z,48.87
2019-05-12T14:43:34.921Z,40.40
2019-05-12T14:48:40.423Z,39.57
2019-05-12T14:53:40.553Z,42.20
2019-05-12T14:58:44.124Z,40.53
2019-05-12T15:03:47.688Z,39.97
2019-05-12T15:08:50.219Z,40.63
2019-05-12T15:13:54.001Z,40.03
2019-05-12T15:18:57.362Z,40.83
2019-05-12T15:23:58.997Z,40.90
2019-05-12T15:29:05.361Z,40.53
2019-05-12T15:34:04.325Z,41.47
2019-05-12T15:39:07.059Z,39.93
2019-05-12T15:44:09.962Z,42.17
2019-05-12T15:49:11.891Z,41.03
2019-05-12T15:54:14.647Z,41.53
2019-05-12T15:59:17.421Z,41.20
2019-05-12T16:04:19.266Z,40.70
2019-05-12T16:09:20.820Z,41.70
2019-05-12T16:14:23.333Z,41.90
2019-05-12T16:19:26.514Z,42.10
2019-05-12T16:24:28.094Z,41.47
2019-05-12T16:29:38.907Z,40.27
2019-05-12T16:34:44.853Z,41.60
2019-05-12T16:39:47.379Z,42.30
2019-05-12T16:44:48.374Z,41.93
2019-05-12T16:49:49.976Z,42.67
2019-05-12T16:54:53.901Z,42.17
2019-05-12T17:00:02.379Z,41.07
2019-05-12T17:04:59.445Z,40.80
2019-05-12T17:10:11.561Z,41.80
2019-05-12T17:15:07.535Z,42.77
2019-05-12T17:20:13.588Z,42.87
2019-05-12T17:25:15.792Z,42.67
2019-05-12T17:30:18.387Z,45.67
2019-05-12T17:35:25.759Z,42.80
2019-05-12T17:40:24.413Z,41.33
2019-05-12T17:45:26.520Z,41.73
2019-05-12T17:50:28.396Z,41.93
2019-05-12T17:55:30.094Z,43.10
2019-05-12T18:00:33.593Z,42.70
2019-05-12T18:05:36.392Z,41.50
2019-05-12T18:10:39.545Z,40.67
2019-05-12T18:15:41.598Z,41.53
2019-05-12T18:20:44.529Z,41.53
2019-05-12T18:25:46.584Z,43.23
2019-05-12T18:30:48.365Z,43.27
2019-05-12T18:35:50.237Z,42.60
2019-05-12T18:40:54.100Z,41.53
2019-05-12T18:46:04.829Z,43.43
2019-05-12T18:51:02.826Z,42.73
2019-05-12T18:56:04.719Z,42.33
2019-05-12T19:01:07.104Z,44.53
2019-05-12T19:06:08.937Z,42.53
2019-05-12T19:11:19.891Z,43.13
2019-05-12T19:16:20.976Z,43.67
2019-05-12T19:21:24.789Z,42.20
2019-05-12T19:26:26.814Z,41.77
2019-05-12T19:31:28.659Z,43.70
2019-05-12T19:36:36.024Z,42.70
2019-05-12T19:41:36.381Z,46.93
2019-05-12T19:46:39.931Z,46.23
2019-05-12T19:51:43.784Z,41.67
2019-05-12T19:56:45.315Z,39.80
2019-05-12T20:01:46.974Z,41.00
2019-05-12T20:06:48.530Z,43.80
2019-05-12T20:11:50.198Z,38.87
2019-05-12T20:16:54.270Z,35.00
2019-05-12T20:21:55.331Z,41.03
2019-05-12T20:26:56.915Z,40.17
2019-05-12T20:31:58.982Z,40.27
2019-05-12T20:37:06.018Z,33.57
2019-05-12T20:42:05.244Z,36.67
2019-05-12T20:47:08.902Z,33.80
2019-05-12T20:52:10.492Z,35.63
2019-05-12T20:57:14.041Z,32.03
2019-05-12T21:02:16.035Z,34.73
2019-05-12T21:07:21.727Z,31.73
2019-05-12T21:12:21.464Z,32.30
2019-05-12T21:17:38.897Z,28.50
2019-05-12T21:22:26.619Z,29.67
2019-05-12T21:27:28.173Z,28.93
2019-05-12T21:32:29.667Z,38.17
2019-05-12T21:37:31.415Z,38.00
2019-05-12T21:42:33.832Z,38.70
2019-05-12T21:47:42.774Z,33.83
2019-05-12T21:52:40.338Z,45.70
2019-05-12T21:57:43.737Z,48.73
2019-05-12T22:02:45.622Z,31.10
2019-05-12T22:07:47.194Z,40.50
2019-05-12T22:12:48.874Z,30.57
2019-05-12T22:17:59.861Z,34.80
2019-05-12T22:23:06.931Z,30.53
2019-05-12T22:28:10.006Z,35.63
2019-05-12T22:33:10.927Z,40.77
2019-05-12T22:38:16.611Z,28.93
2019-05-12T22:43:16.490Z,21.97
2019-05-12T22:48:18.858Z,39.57
2019-05-12T22:53:25.700Z,27.83
2019-05-12T22:58:25.576Z,25.73
2019-05-12T23:03:27.807Z,28.63
2019-05-12T23:08:29.358Z,40.33
2019-05-12T23:13:32.347Z,42.23
2019-05-12T23:18:34.975Z,24.77
2019-05-12T23:23:36.474Z,34.37
2019-05-12T23:28:40.378Z,35.73
2019-05-12T23:33:43.975Z,30.30
2019-05-12T23:38:44.819Z,29.97
2019-05-12T23:43:46.382Z,46.63
2019-05-12T23:48:49.544Z,34.53
2019-05-12T23:53:51.137Z,20.13
2019-05-12T23:58:53.843Z,39.30
